Time;durP1;ratioP1;P1;durP2;ratioP2;P2;SDS_P1;SDS_P2;PMS_P1;PMS_P2;Temp;Humidity;BMP_temperature;BMP_pressure;BME280_temperature;BME280_humidity;BME280_pressure;Samples;Min_cycle;Max_cycle;Signal;HPM_P1;HPM_P2
2022/03/09 00:00:08;;;;;;;1.40;1.30;;;13.80;51.60;;;;;;5098740;28;20159;-75
2022/03/09 00:02:35;;;;;;;1.43;1.30;;;13.80;51.60;;;;;;5098305;28;20179;-75
2022/03/09 00:05:01;;;;;;;1.67;1.40;;;13.80;51.60;;;;;;5098314;28;20165;-74
2022/03/09 00:07:27;;;;;;;1.33;1.23;;;13.80;51.60;;;;;;5098218;28;20195;-75
2022/03/09 00:09:54;;;;;;;4.10;1.70;;;13.80;51.60;;;;;;5097672;28;20174;-74
2022/03/09 00:12:26;;;;;;;1.60;1.40;;;13.90;51.60;;;;;;5097595;28;20217;-74
2022/03/09 00:14:51;;;;;;;1.50;1.37;;;13.80;51.60;;;;;;5097570;28;20173;-74
2022/03/09 00:17:17;;;;;;;2.07;1.70;;;13.80;51.60;;;;;;5098407;28;20169;-74
2022/03/09 00:19:43;;;;;;;2.00;1.43;;;13.80;51.60;;;;;;5098199;28;20188;-75
2022/03/09 00:22:09;;;;;;;1.70;1.60;;;13.80;51.60;;;;;;5097988;28;20446;-74
2022/03/09 00:24:34;;;;;;;1.60;1.30;;;13.80;51.60;;;;;;5097970;28;20634;-74
2022/03/09 00:27:00;;;;;;;1.73;1.37;;;13.80;51.60;;;;;;5097724;28;20167;-74
2022/03/09 00:29:26;;;;;;;1.37;1.27;;;13.80;51.50;;;;;;5097894;28;20191;-74
2022/03/09 00:31:53;;;;;;;1.60;1.30;;;13.80;51.50;;;;;;5097749;28;20638;-74
2022/03/09 00:34:19;;;;;;;1.70;1.20;;;13.80;51.60;;;;;;5097084;28;20250;-76
2022/03/09 00:36:45;;;;;;;1.90;1.50;;;13.80;51.60;;;;;;5097825;28;20154;-75
2022/03/09 00:39:11;;;;;;;1.80;1.47;;;13.80;51.60;;;;;;5097268;28;20226;-74
2022/03/09 00:41:37;;;;;;;1.33;1.23;;;13.80;51.60;;;;;;5097070;28;20212;-74
2022/03/09 00:44:03;;;;;;;2.07;1.40;;;13.70;51.50;;;;;;5097843;28;20664;-74
2022/03/09 00:46:29;;;;;;;2.50;1.53;;;13.80;51.60;;;;;;5098118;28;20184;-74
2022/03/09 00:48:55;;;;;;;2.10;1.33;;;13.80;51.50;;;;;;5097759;28;20209;-74
2022/03/09 00:51:41;;;;;;;1.80;1.50;;;13.70;51.50;;;;;;5097493;28;20168;-74
2022/03/09 00:54:07;;;;;;;1.73;1.40;;;13.70;51.50;;;;;;5097711;28;20165;-74
2022/03/09 00:56:34;;;;;;;1.53;1.43;;;13.70;51.50;;;;;;5097328;28;20172;-75
2022/03/09 00:58:59;;;;;;;1.80;1.50;;;13.70;51.90;;;;;;5097438;28;20819;-74
2022/03/09 01:01:25;;;;;;;1.33;1.20;;;13.70;51.50;;;;;;5096765;28;20326;-74
2022/03/09 01:03:51;;;;;;;2.20;1.30;;;13.70;51.50;;;;;;5097232;28;20182;-74
2022/03/09 01:06:17;;;;;;;1.90;1.50;;;13.70;51.50;;;;;;5097680;28;20170;-74
2022/03/09 01:08:43;;;;;;;1.63;1.53;;;13.70;51.50;;;;;;5097504;28;20307;-75
2022/03/09 01:11:14;;;;;;;1.83;1.30;;;13.70;51.50;;;;;;5097485;28;20173;-74
2022/03/09 01:13:40;;;;;;;1.50;1.27;;;13.70;51.50;;;;;;5097244;28;20189;-75
2022/03/09 01:16:05;;;;;;;1.87;1.40;;;13.70;51.50;;;;;;5097199;28;20181;-74
2022/03/09 01:18:31;;;;;;;1.63;1.30;;;13.70;51.90;;;;;;5095816;28;20238;-75
2022/03/09 01:21:04;;;;;;;2.07;1.50;;;13.70;51.50;;;;;;5097263;28;20162;-74
2022/03/09 01:23:30;;;;;;;1.70;1.40;;;13.70;51.40;;;;;;5096855;28;20638;-74
2022/03/09 01:25:56;;;;;;;2.27;1.57;;;13.70;51.40;;;;;;5097626;28;20568;-74
2022/03/09 01:28:21;;;;;;;1.60;1.40;;;13.70;51.80;;;;;;5096521;28;20204;-74
2022/03/09 01:30:56;;;;;;;1.53;1.43;;;13.70;51.40;;;;;;5097191;28;20182;-75
2022/03/09 01:33:22;;;;;;;1.60;1.40;;;13.70;51.40;;;;;;5096915;28;20177;-75
2022/03/09 01:35:48;;;;;;;1.70;1.40;;;13.70;51.40;;;;;;5097465;28;20168;-75
2022/03/09 01:38:13;;;;;;;1.70;1.47;;;13.70;51.40;;;;;;5097259;28;20251;-75
2022/03/09 01:40:40;;;;;;;1.80;1.50;;;13.70;51.40;;;;;;5096506;28;20755;-75
2022/03/09 01:43:06;;;;;;;2.20;1.43;;;13.70;51.40;;;;;;5097080;28;20198;-75
2022/03/09 01:45:32;;;;;;;1.57;1.47;;;13.60;51.30;;;;;;5096194;28;20181;-75
2022/03/09 01:50:27;;;;;;;1.60;1.50;;;13.70;51.40;;;;;;5071138;28;20288;-19
2022/03/09 01:52:53;;;;;;;1.63;1.53;;;13.60;51.30;;;;;;5074188;28;20186;-20
2022/03/09 01:55:19;;;;;;;1.57;1.47;;;13.60;51.30;;;;;;5074001;28;20175;-18
2022/03/09 01:57:44;;;;;;;1.70;1.60;;;13.60;51.30;;;;;;5074634;28;20197;-20
2022/03/09 02:00:11;;;;;;;1.90;1.70;;;13.60;51.20;;;;;;5073816;28;20269;-18
2022/03/09 02:02:37;;;;;;;1.70;1.60;;;13.60;51.20;;;;;;5072894;28;20618;-22
2022/03/09 02:05:03;;;;;;;1.90;1.53;;;13.60;51.20;;;;;;5072633;28;20179;-21
2022/03/09 02:10:18;;;;;;;2.43;1.60;;;13.60;51.50;;;;;;5072253;28;20186;-19
2022/03/09 02:12:43;;;;;;;1.57;1.47;;;13.60;51.20;;;;;;5056310;28;20188;-20
2022/03/09 02:15:09;;;;;;;1.77;1.50;;;13.60;51.20;;;;;;5075830;28;20175;-19
2022/03/09 02:17:35;;;;;;;2.47;1.70;;;13.60;51.10;;;;;;5077135;28;20198;-18
2022/03/09 02:20:01;;;;;;;1.63;1.53;;;13.60;51.10;;;;;;5060455;28;20174;-20
2022/03/09 02:22:33;;;;;;;1.47;1.37;;;13.60;51.10;;;;;;5078025;28;20175;-19
2022/03/09 02:25:02;;;;;;;2.00;1.50;;;13.60;51.10;;;;;;5078451;28;20493;-21
2022/03/09 02:27:28;;;;;;;1.60;1.33;;;13.60;51.10;;;;;;5076036;28;20207;-22
2022/03/09 02:29:55;;;;;;;1.63;1.53;;;13.60;51.10;;;;;;5056997;28;20536;-19
2022/03/09 02:32:22;;;;;;;1.40;1.30;;;13.50;51.00;;;;;;5074163;28;20198;-20
2022/03/09 02:34:48;;;;;;;1.50;1.40;;;13.50;51.00;;;;;;5058201;28;20192;-19
2022/03/09 02:37:14;;;;;;;2.10;1.53;;;13.50;51.00;;;;;;5058081;28;20175;-18
2022/03/09 02:39:40;;;;;;;2.00;1.50;;;13.50;51.00;;;;;;5075501;28;20216;-19
2022/03/09 02:42:07;;;;;;;2.33;1.50;;;13.50;51.00;;;;;;5075260;28;20476;-19
2022/03/09 02:44:33;;;;;;;1.47;1.37;;;13.50;51.00;;;;;;5059303;28;20574;-20
2022/03/09 02:46:59;;;;;;;1.83;1.60;;;13.50;51.00;;;;;;5060420;28;20170;-19
2022/03/09 02:49:25;;;;;;;1.67;1.57;;;13.50;51.00;;;;;;5067776;28;20209;-18
2022/03/09 02:51:50;;;;;;;1.63;1.50;;;13.50;50.90;;;;;;5076121;28;20276;-18
2022/03/09 02:54:17;;;;;;;1.60;1.40;;;13.50;51.00;;;;;;5076719;28;20269;-20
2022/03/09 02:56:43;;;;;;;1.40;1.30;;;13.50;50.90;;;;;;5076633;28;20572;-19
2022/03/09 02:59:08;;;;;;;1.33;1.20;;;13.50;51.00;;;;;;5077518;28;20216;-18
2022/03/09 03:01:35;;;;;;;1.50;1.40;;;13.50;51.00;;;;;;5075379;28;20540;-19
2022/03/09 03:04:01;;;;;;;1.87;1.37;;;13.50;50.90;;;;;;5076934;28;20550;-23
2022/03/09 03:06:27;;;;;;;1.53;1.43;;;13.50;50.90;;;;;;5077269;28;20625;-19
2022/03/09 03:08:53;;;;;;;2.50;1.60;;;13.50;50.90;;;;;;5077376;28;20205;-21
2022/03/09 03:11:19;;;;;;;1.77;1.67;;;13.50;50.90;;;;;;5077222;28;20589;-18
2022/03/09 03:13:48;;;;;;;1.60;1.43;;;13.50;50.90;;;;;;5075927;28;20269;-22
2022/03/09 03:16:14;;;;;;;1.63;1.53;;;13.50;50.80;;;;;;5077569;28;20185;-22
2022/03/09 03:18:40;;;;;;;1.43;1.33;;;13.50;50.80;;;;;;5076824;28;20552;-21
2022/03/09 03:21:06;;;;;;;2.03;1.40;;;13.50;50.80;;;;;;5076618;28;20177;-20
2022/03/09 03:23:33;;;;;;;2.17;1.80;;;13.50;50.80;;;;;;5075732;28;20244;-22
2022/03/09 03:26:01;;;;;;;1.90;1.40;;;13.40;50.70;;;;;;5076704;28;20203;-18
2022/03/09 03:28:27;;;;;;;1.60;1.50;;;13.40;50.70;;;;;;5076076;28;20229;-18
2022/03/09 03:30:53;;;;;;;1.60;1.50;;;13.40;50.70;;;;;;5076503;28;20184;-19
2022/03/09 03:33:20;;;;;;;1.93;1.60;;;13.40;50.70;;;;;;5076266;28;20396;-21
2022/03/09 03:35:47;;;;;;;1.57;1.47;;;13.40;50.70;;;;;;5076117;28;20277;-23
2022/03/09 03:38:14;;;;;;;2.00;1.50;;;13.40;50.70;;;;;;5075704;28;20466;-19
2022/03/09 03:40:40;;;;;;;1.37;1.27;;;13.40;50.60;;;;;;5075295;28;20553;-19
2022/03/09 03:43:07;;;;;;;1.73;1.37;;;13.40;50.60;;;;;;5075417;28;20461;-19
2022/03/09 03:45:32;;;;;;;1.70;1.60;;;13.40;50.60;;;;;;5076122;28;20195;-21
2022/03/09 03:47:58;;;;;;;1.83;1.57;;;13.40;50.60;;;;;;5076457;28;20201;-18
2022/03/09 03:50:24;;;;;;;1.50;1.40;;;13.40;50.60;;;;;;5075869;28;20218;-20
2022/03/09 03:52:50;;;;;;;1.50;1.40;;;13.40;50.60;;;;;;5058033;28;20322;-19
2022/03/09 03:55:16;;;;;;;1.60;1.50;;;13.40;50.60;;;;;;5057758;28;20463;-19
2022/03/09 03:57:42;;;;;;;1.67;1.57;;;13.40;50.60;;;;;;5058444;28;20181;-22
2022/03/09 04:00:09;;;;;;;1.47;1.37;;;13.40;50.60;;;;;;5075944;28;20207;-21
2022/03/09 04:02:36;;;;;;;1.60;1.50;;;13.40;50.50;;;;;;5075521;28;20273;-18
2022/03/09 04:05:02;;;;;;;1.77;1.53;;;13.40;50.50;;;;;;5076179;28;20185;-20
2022/03/09 04:07:28;;;;;;;1.87;1.50;;;13.40;50.50;;;;;;5057864;28;20216;-19
2022/03/09 04:09:54;;;;;;;1.57;1.47;;;13.40;50.50;;;;;;5073961;28;20174;-20
2022/03/09 04:12:20;;;;;;;2.67;1.30;;;13.40;50.50;;;;;;5075484;28;20165;-18
2022/03/09 04:14:46;;;;;;;2.27;1.53;;;13.40;50.40;;;;;;5075915;28;20174;-20
2022/03/09 04:17:12;;;;;;;1.70;1.60;;;13.30;50.40;;;;;;5058583;28;20266;-19
2022/03/09 04:19:38;;;;;;;1.63;1.40;;;13.30;50.40;;;;;;5057658;28;20599;-19
2022/03/09 04:22:04;;;;;;;1.63;1.53;;;13.30;50.30;;;;;;5058023;28;20270;-20
2022/03/09 04:24:30;;;;;;;1.60;1.50;;;13.30;50.30;;;;;;5057035;28;20177;-19
2022/03/09 04:26:56;;;;;;;1.60;1.50;;;13.30;50.30;;;;;;5075447;28;20182;-20
2022/03/09 04:29:21;;;;;;;1.80;1.30;;;13.30;50.30;;;;;;5057162;28;20204;-19
2022/03/09 04:31:47;;;;;;;1.77;1.40;;;13.30;50.40;;;;;;5074865;28;20178;-20
2022/03/09 04:34:13;;;;;;;1.80;1.60;;;13.30;50.40;;;;;;5074882;28;20188;-19
2022/03/09 04:36:39;;;;;;;1.97;1.50;;;13.30;50.40;;;;;;5075315;28;20162;-19
2022/03/09 04:39:05;;;;;;;1.70;1.60;;;13.30;50.40;;;;;;5074785;28;20344;-23
2022/03/09 04:41:31;;;;;;;1.53;1.43;;;13.30;50.40;;;;;;5057587;28;20183;-20
2022/03/09 04:43:57;;;;;;;1.50;1.40;;;13.30;50.40;;;;;;5075348;28;20269;-19
2022/03/09 04:46:23;;;;;;;1.60;1.50;;;13.30;50.40;;;;;;5057265;28;20628;-24
2022/03/09 04:48:49;;;;;;;1.73;1.53;;;13.30;50.40;;;;;;5073952;28;20214;-18
2022/03/09 04:51:16;;;;;;;2.37;1.60;;;13.30;50.40;;;;;;5073893;28;20234;-21
2022/03/09 04:53:42;;;;;;;1.77;1.30;;;13.30;50.40;;;;;;5056623;28;20463;-19
2022/03/09 04:56:08;;;;;;;2.37;1.40;;;13.20;50.40;;;;;;5056170;28;20553;-19
2022/03/09 04:58:34;;;;;;;1.50;1.40;;;13.30;50.40;;;;;;5074386;28;20185;-19
2022/03/09 05:00:59;;;;;;;1.70;1.60;;;13.30;50.40;;;;;;5057390;28;20591;-20
2022/03/09 05:03:25;;;;;;;2.13;1.57;;;13.20;50.30;;;;;;5073912;28;20173;-22
2022/03/09 05:05:50;;;;;;;2.30;1.40;;;13.20;50.30;;;;;;5073678;28;20204;-20
2022/03/09 05:08:16;;;;;;;1.50;1.40;;;13.20;50.30;;;;;;5072363;28;20194;-18
2022/03/09 05:10:42;;;;;;;1.80;1.50;;;13.20;50.30;;;;;;5072756;28;20316;-19
2022/03/09 05:13:07;;;;;;;1.53;1.40;;;13.20;50.30;;;;;;5073577;28;20166;-19
2022/03/09 05:15:33;;;;;;;1.63;1.53;;;13.20;50.30;;;;;;5055363;28;20174;-21
2022/03/09 05:17:59;;;;;;;1.60;1.50;;;13.20;50.30;;;;;;5056238;28;20265;-19
2022/03/09 05:20:25;;;;;;;2.17;1.63;;;13.20;50.30;;;;;;5074111;28;20335;-18
2022/03/09 05:22:51;;;;;;;1.70;1.50;;;13.20;50.30;;;;;;5039237;28;20197;-21
2022/03/09 05:25:17;;;;;;;1.50;1.40;;;13.20;50.30;;;;;;5074255;28;20705;-19
2022/03/09 05:27:44;;;;;;;1.73;1.50;;;13.20;50.30;;;;;;5056041;28;20303;-20
2022/03/09 05:30:10;;;;;;;1.70;1.50;;;13.20;50.30;;;;;;5055221;28;20406;-19
2022/03/09 05:32:36;;;;;;;1.83;1.57;;;13.20;50.20;;;;;;5055849;28;20235;-18
2022/03/09 05:35:03;;;;;;;2.50;1.57;;;13.20;50.20;;;;;;5055388;28;20520;-19
2022/03/09 05:37:34;;;;;;;2.20;1.53;;;13.20;50.20;;;;;;5073741;28;20306;-19
2022/03/09 05:40:00;;;;;;;2.17;1.50;;;13.20;50.30;;;;;;5055584;28;20163;-19
2022/03/09 05:42:25;;;;;;;2.67;1.50;;;13.20;50.20;;;;;;5072750;28;20177;-22
2022/03/09 05:44:51;;;;;;;1.47;1.23;;;13.20;50.30;;;;;;5055251;28;20185;-19
2022/03/09 05:47:17;;;;;;;2.00;1.50;;;13.20;50.30;;;;;;5054325;28;20197;-19
2022/03/09 05:49:42;;;;;;;1.80;1.63;;;13.20;50.20;;;;;;5066338;28;20511;-19
2022/03/09 05:52:08;;;;;;;2.80;1.60;;;13.20;50.20;;;;;;5073741;28;20180;-20
2022/03/09 05:54:34;;;;;;;1.80;1.70;;;13.20;50.20;;;;;;5075312;28;20173;-18
2022/03/09 05:56:59;;;;;;;1.57;1.47;;;13.20;50.20;;;;;;5076298;28;20692;-18
2022/03/09 05:59:25;;;;;;;3.30;2.10;;;13.10;50.20;;;;;;5073848;28;20435;-18
2022/03/09 06:01:51;;;;;;;1.77;1.67;;;13.10;50.20;;;;;;5074272;28;20194;-20
2022/03/09 06:04:16;;;;;;;1.77;1.60;;;13.20;50.20;;;;;;5073822;28;20581;-19
2022/03/09 06:06:42;;;;;;;1.60;1.47;;;13.20;50.20;;;;;;5073577;28;20475;-23
2022/03/09 06:09:08;;;;;;;2.40;1.70;;;13.20;50.10;;;;;;5073623;28;20213;-19
2022/03/09 06:11:34;;;;;;;2.00;1.70;;;13.20;50.10;;;;;;5073568;28;20253;-18
2022/03/09 06:13:59;;;;;;;3.83;1.80;;;13.10;50.00;;;;;;5073328;28;20204;-20
2022/03/09 06:16:25;;;;;;;1.70;1.47;;;13.10;50.00;;;;;;5071661;28;20561;-17
2022/03/09 06:18:51;;;;;;;2.40;1.80;;;13.10;49.90;;;;;;5073046;28;20455;-18
2022/03/09 06:21:17;;;;;;;2.13;1.80;;;13.20;49.90;;;;;;5073746;28;20177;-20
2022/03/09 06:23:43;;;;;;;2.23;1.80;;;13.10;49.80;;;;;;5074195;28;20232;-20
2022/03/09 06:26:08;;;;;;;5.33;2.00;;;13.20;50.10;;;;;;5072564;28;20561;-19
2022/03/09 06:28:35;;;;;;;1.60;1.50;;;13.20;50.30;;;;;;5071349;28;20620;-19
2022/03/09 06:31:01;;;;;;;2.27;1.60;;;13.20;50.50;;;;;;5071910;28;20178;-19
2022/03/09 06:33:26;;;;;;;2.10;1.77;;;13.20;50.60;;;;;;5071463;28;20207;-19
2022/03/09 06:35:52;;;;;;;2.57;1.80;;;13.30;50.70;;;;;;5071950;28;20177;-21
2022/03/09 06:38:18;;;;;;;2.40;1.70;;;13.30;50.80;;;;;;5076233;28;20193;-20
2022/03/09 06:40:43;;;;;;;2.00;1.80;;;13.30;50.70;;;;;;5077827;28;20183;-20
2022/03/09 06:43:09;;;;;;;1.80;1.70;;;13.40;50.60;;;;;;5072430;28;20461;-18
2022/03/09 06:45:35;;;;;;;2.77;1.80;;;13.50;50.30;;;;;;5071000;28;20508;-19
2022/03/09 06:48:03;;;;;;;2.43;1.90;;;13.60;50.00;;;;;;5071031;28;20289;-19
2022/03/09 06:50:29;;;;;;;3.00;1.93;;;13.70;49.50;;;;;;5052921;28;20175;-19
2022/03/09 06:52:54;;;;;;;3.70;2.20;;;13.80;49.20;;;;;;5053514;28;20360;-20
2022/03/09 06:55:21;;;;;;;3.37;2.10;;;13.90;48.90;;;;;;5070262;28;20237;-19
2022/03/09 06:57:47;;;;;;;2.17;1.97;;;13.90;48.60;;;;;;5070557;28;20267;-19
2022/03/09 07:00:16;;;;;;;3.37;2.43;;;14.10;48.50;;;;;;5070069;28;20183;-20
2022/03/09 07:02:43;;;;;;;2.20;1.93;;;14.10;48.30;;;;;;5052431;28;20190;-21
2022/03/09 07:05:11;;;;;;;4.07;2.37;;;14.20;48.10;;;;;;5052129;28;20465;-21
2022/03/09 07:07:38;;;;;;;2.37;2.10;;;14.20;47.90;;;;;;5053354;28;20201;-21
2022/03/09 07:10:05;;;;;;;4.03;2.27;;;14.30;47.80;;;;;;5070574;28;20519;-20
2022/03/09 07:12:30;;;;;;;4.47;2.80;;;14.40;47.60;;;;;;5053639;28;20358;-19
2022/03/09 07:14:56;;;;;;;3.53;2.60;;;14.50;47.50;;;;;;5070915;28;20182;-19
2022/03/09 07:17:22;;;;;;;3.47;2.50;;;14.60;47.30;;;;;;5053692;28;20173;-21
2022/03/09 07:19:48;;;;;;;3.97;2.37;;;14.60;47.10;;;;;;5053860;28;20235;-19
2022/03/09 07:22:14;;;;;;;3.33;2.47;;;14.80;47.00;;;;;;5053363;28;20206;-21
2022/03/09 07:24:39;;;;;;;3.93;2.40;;;14.90;46.80;;;;;;5052949;28;20171;-20
2022/03/09 07:27:05;;;;;;;2.93;2.50;;;15.00;46.60;;;;;;5052173;28;20240;-19
2022/03/09 07:29:31;;;;;;;3.00;2.10;;;15.10;46.40;;;;;;5070692;28;20464;-21
2022/03/09 07:31:57;;;;;;;2.50;2.30;;;15.20;46.20;;;;;;5071118;28;20164;-19
2022/03/09 07:34:24;;;;;;;2.50;2.20;;;15.40;46.00;;;;;;5053514;28;20608;-19
2022/03/09 07:36:50;;;;;;;2.90;2.37;;;15.50;45.90;;;;;;5052153;28;20183;-20
2022/03/09 07:39:16;;;;;;;2.57;2.37;;;15.60;45.60;;;;;;5069751;28;20164;-21
2022/03/09 07:41:42;;;;;;;3.03;2.73;;;15.70;45.40;;;;;;5051644;28;20282;-21
2022/03/09 07:44:08;;;;;;;3.47;3.17;;;15.80;45.10;;;;;;5074012;28;20231;-19
2022/03/09 07:46:34;;;;;;;3.83;3.50;;;15.90;44.90;;;;;;5077058;28;20168;-19
2022/03/09 07:49:00;;;;;;;4.67;3.30;;;16.00;44.80;;;;;;5063209;28;20580;-21
2022/03/09 07:51:26;;;;;;;4.27;2.77;;;16.10;44.60;;;;;;5068383;28;20225;-20
2022/03/09 07:53:52;;;;;;;5.13;2.53;;;16.20;44.40;;;;;;5070134;28;20407;-21
2022/03/09 07:56:18;;;;;;;2.77;2.43;;;16.30;44.20;;;;;;5069490;28;20235;-19
2022/03/09 07:58:43;;;;;;;2.90;2.60;;;16.40;44.20;;;;;;5069799;28;20290;-20
2022/03/09 08:01:09;;;;;;;3.00;2.60;;;16.40;44.00;;;;;;5071668;28;20257;-23
2022/03/09 08:03:35;;;;;;;4.10;2.87;;;16.50;43.90;;;;;;5070127;28;20203;-19
2022/03/09 08:06:01;;;;;;;3.40;2.40;;;16.60;43.90;;;;;;5069528;28;20554;-21
2022/03/09 08:08:27;;;;;;;4.00;2.57;;;16.60;43.80;;;;;;5069686;28;20579;-24
2022/03/09 08:10:53;;;;;;;4.63;3.00;;;16.70;43.80;;;;;;5070110;28;20186;-20
2022/03/09 08:13:19;;;;;;;2.80;2.33;;;16.80;43.70;;;;;;5068404;28;20179;-21
2022/03/09 08:15:45;;;;;;;3.90;2.70;;;16.90;43.60;;;;;;5069353;28;20167;-19
2022/03/09 08:18:10;;;;;;;3.90;2.30;;;16.90;43.50;;;;;;5068712;28;20274;-23
2022/03/09 08:20:36;;;;;;;3.40;2.50;;;17.00;43.50;;;;;;5067863;28;20270;-20
2022/03/09 08:23:02;;;;;;;3.87;2.60;;;17.10;43.40;;;;;;5069579;28;20265;-20
2022/03/09 08:25:27;;;;;;;4.30;2.83;;;17.10;43.30;;;;;;5069882;28;20171;-20
2022/03/09 08:27:53;;;;;;;3.37;2.50;;;17.20;43.20;;;;;;5068060;28;20364;-19
2022/03/09 08:30:19;;;;;;;2.90;2.60;;;17.20;43.20;;;;;;5068220;28;20163;-20
2022/03/09 08:32:45;;;;;;;3.10;2.50;;;17.30;43.10;;;;;;5067714;28;20266;-25
2022/03/09 08:35:10;;;;;;;2.60;2.23;;;17.30;43.00;;;;;;5069477;28;20427;-22
2022/03/09 08:37:36;;;;;;;3.10;2.60;;;17.40;43.00;;;;;;5069154;28;20236;-19
2022/03/09 08:40:03;;;;;;;4.70;2.40;;;17.40;42.90;;;;;;5065843;28;20319;-19
2022/03/09 08:42:28;;;;;;;5.27;2.60;;;17.50;42.80;;;;;;5066828;28;20361;-19
2022/03/09 08:44:54;;;;;;;3.87;2.50;;;17.50;42.60;;;;;;5068369;28;20179;-22
2022/03/09 08:47:20;;;;;;;3.37;2.50;;;17.60;42.60;;;;;;5068435;28;20239;-19
2022/03/09 08:49:45;;;;;;;3.77;2.33;;;17.60;42.90;;;;;;5066681;28;20252;-19
2022/03/09 08:52:12;;;;;;;4.13;2.90;;;17.70;42.30;;;;;;5068695;28;20206;-20
2022/03/09 08:54:40;;;;;;;2.80;2.43;;;17.70;42.30;;;;;;5068862;28;20167;-19
2022/03/09 08:57:06;;;;;;;3.23;2.60;;;17.80;42.20;;;;;;5069620;28;20187;-19
2022/03/09 08:59:32;;;;;;;3.07;2.57;;;17.90;42.20;;;;;;5068357;28;20228;-19
2022/03/09 09:01:57;;;;;;;4.07;2.83;;;17.90;42.10;;;;;;5067622;28;20175;-20
2022/03/09 09:04:23;;;;;;;3.50;2.63;;;18.00;42.10;;;;;;5069135;28;20182;-20
2022/03/09 09:06:49;;;;;;;3.90;2.50;;;18.10;42.00;;;;;;5068744;28;20183;-21
2022/03/09 09:09:17;;;;;;;4.10;2.63;;;18.10;42.00;;;;;;5067737;28;20203;-20
2022/03/09 09:11:43;;;;;;;3.07;2.27;;;18.20;41.90;;;;;;5070708;28;20553;-19
2022/03/09 09:14:09;;;;;;;3.47;2.53;;;18.20;41.80;;;;;;5074777;28;20175;-21
2022/03/09 09:16:35;;;;;;;3.10;2.43;;;18.30;41.80;;;;;;5073638;28;20172;-20
2022/03/09 09:19:01;;;;;;;3.70;2.33;;;18.40;41.70;;;;;;5058253;28;20172;-19
2022/03/09 09:21:33;;;;;;;4.70;2.53;;;18.50;41.70;;;;;;5074678;28;20194;-19
2022/03/09 09:23:58;;;;;;;4.10;2.30;;;18.50;41.50;;;;;;5076739;28;20515;-19
2022/03/09 09:26:24;;;;;;;2.90;2.30;;;18.60;41.50;;;;;;5081236;28;20698;-22
2022/03/09 09:28:50;;;;;;;3.97;2.40;;;18.60;41.40;;;;;;5080502;28;20203;-19
2022/03/09 09:31:18;;;;;;;9.63;2.83;;;18.60;41.40;;;;;;5080234;28;20788;-24
2022/03/09 09:33:44;;;;;;;2.83;2.57;;;18.40;41.30;;;;;;5079760;28;20328;-21
2022/03/09 09:36:11;;;;;;;3.70;2.20;;;18.10;41.50;;;;;;5081508;28;20203;-21
2022/03/09 09:38:37;;;;;;;3.37;2.10;;;17.70;41.80;;;;;;5080512;28;20175;-20
2022/03/09 09:41:08;;;;;;;2.70;2.40;;;17.30;42.10;;;;;;5079514;28;20183;-20
2022/03/09 09:43:34;;;;;;;2.23;2.00;;;17.10;42.60;;;;;;5080781;28;20167;-19
2022/03/09 09:46:00;;;;;;;3.33;2.40;;;16.80;42.80;;;;;;5081031;28;20195;-20
2022/03/09 09:48:26;;;;;;;2.53;2.30;;;16.60;43.00;;;;;;5081110;28;20199;-20
2022/03/09 09:50:52;;;;;;;2.90;2.30;;;16.50;43.30;;;;;;5064274;28;20172;-20
2022/03/09 09:53:18;;;;;;;2.57;2.33;;;16.40;43.40;;;;;;5081703;28;20526;-21
2022/03/09 09:55:44;;;;;;;3.70;2.37;;;16.40;43.50;;;;;;5075383;28;20576;-20
2022/03/09 09:58:10;;;;;;;3.33;2.77;;;16.30;43.50;;;;;;5074562;28;20306;-20
2022/03/09 10:00:37;;;;;;;3.53;2.50;;;16.30;43.50;;;;;;5074237;28;20281;-19
2022/03/09 10:03:04;;;;;;;2.60;2.33;;;16.20;43.70;;;;;;5073356;28;20175;-20
2022/03/09 10:05:31;;;;;;;3.97;2.47;;;16.20;43.20;;;;;;5057026;28;20592;-22
2022/03/09 10:08:06;;;;;;;2.63;2.40;;;16.20;43.10;;;;;;5073944;28;20605;-19
2022/03/09 10:10:52;;;;;;;4.00;3.00;;;16.20;43.00;;;;;;5073502;28;20159;-19
2022/03/09 10:13:31;;;;;;;4.00;2.93;;;16.30;42.80;;;;;;5074283;28;20164;-22
2022/03/09 10:16:12;;;;;;;3.20;2.90;;;16.30;42.60;;;;;;5073319;28;20155;-21
2022/03/09 10:18:40;;;;;;;4.97;3.10;;;16.30;42.40;;;;;;5056185;28;20175;-21
2022/03/09 10:21:26;;;;;;;4.80;3.00;;;16.30;42.30;;;;;;5056391;28;20171;-21
2022/03/09 10:23:57;;;;;;;3.50;3.20;;;16.20;42.30;;;;;;5075365;28;20175;-19
2022/03/09 10:26:25;;;;;;;3.90;2.87;;;16.20;42.30;;;;;;5074027;28;20175;-20
2022/03/09 10:28:59;;;;;;;2.87;2.57;;;16.20;42.40;;;;;;5054642;28;20298;-20
2022/03/09 10:31:39;;;;;;;3.93;2.83;;;16.20;42.50;;;;;;5073796;28;20164;-19
2022/03/09 10:34:15;;;;;;;4.20;3.07;;;16.20;42.50;;;;;;5073650;28;20587;-19
2022/03/09 10:36:59;;;;;;;3.67;3.03;;;16.20;42.50;;;;;;5051866;28;20168;-25
2022/03/09 10:39:28;;;;;;;4.47;3.17;;;16.20;42.50;;;;;;5053431;28;20174;-20
2022/03/09 10:41:54;;;;;;;4.20;3.40;;;16.20;42.60;;;;;;5055273;28;20616;-20
2022/03/09 10:44:39;;;;;;;3.97;2.90;;;16.20;42.60;;;;;;5056223;28;20208;-22
2022/03/09 10:47:05;;;;;;;5.07;2.90;;;16.20;42.60;;;;;;5060346;28;20255;-21
2022/03/09 10:49:31;;;;;;;3.20;2.90;;;16.20;42.60;;;;;;5075617;28;20627;-21
2022/03/09 10:51:56;;;;;;;3.67;2.90;;;16.20;42.80;;;;;;5052770;28;20262;-21
2022/03/09 10:54:27;;;;;;;3.33;2.97;;;16.30;42.80;;;;;;5070041;28;20175;-19
2022/03/09 10:57:13;;;;;;;5.63;2.80;;;16.20;42.80;;;;;;5052688;28;20420;-20
2022/03/09 10:59:51;;;;;;;3.47;2.50;;;16.30;42.90;;;;;;5052426;28;20175;-19
2022/03/09 11:02:21;;;;;;;2.97;2.63;;;16.20;42.90;;;;;;5052414;28;20171;-19
2022/03/09 11:05:10;;;;;;;3.17;2.87;;;16.20;42.90;;;;;;5070969;28;20170;-19
2022/03/09 11:07:37;;;;;;;3.17;2.50;;;16.20;43.00;;;;;;5052357;28;20190;-21
2022/03/09 11:10:08;;;;;;;3.83;2.90;;;16.20;42.90;;;;;;5051654;28;20193;-21
2022/03/09 11:12:35;;;;;;;2.87;2.43;;;16.20;43.00;;;;;;5069362;28;20287;-20
2022/03/09 11:15:01;;;;;;;4.07;2.70;;;16.20;43.00;;;;;;5069108;28;20574;-21
2022/03/09 11:17:27;;;;;;;3.13;2.60;;;16.20;43.10;;;;;;5070270;28;20167;-19
2022/03/09 11:19:53;;;;;;;2.63;2.43;;;16.20;43.10;;;;;;5050597;28;20182;-20
2022/03/09 11:22:19;;;;;;;3.13;2.50;;;16.20;43.10;;;;;;5051099;28;20175;-21
2022/03/09 11:24:45;;;;;;;7.20;2.73;;;16.20;42.90;;;;;;5051268;28;20190;-19
2022/03/09 11:27:12;;;;;;;4.27;2.70;;;16.20;42.90;;;;;;5051979;28;20179;-20
2022/03/09 11:29:39;;;;;;;3.70;2.93;;;16.20;42.80;;;;;;5068993;28;20393;-19
2022/03/09 11:32:08;;;;;;;3.97;2.83;;;16.20;42.70;;;;;;5051185;28;20274;-19
2022/03/09 11:34:47;;;;;;;4.53;3.30;;;16.20;42.70;;;;;;5052208;28;20442;-19
2022/03/09 11:37:15;;;;;;;3.53;3.00;;;16.20;42.50;;;;;;5052408;28;20175;-20
2022/03/09 11:40:10;;;;;;;4.63;3.20;;;16.20;42.40;;;;;;5068787;28;20196;-20
2022/03/09 11:42:42;;;;;;;3.87;3.00;;;16.20;42.40;;;;;;5050946;28;20171;-19
2022/03/09 11:45:16;;;;;;;3.70;2.77;;;16.20;42.50;;;;;;5044688;28;20294;-21
2022/03/09 11:48:07;;;;;;;3.90;2.93;;;16.20;42.60;;;;;;5034615;28;20243;-19
2022/03/09 11:50:48;;;;;;;3.13;2.63;;;16.20;42.60;;;;;;5043649;28;20443;-19
2022/03/09 11:53:16;;;;;;;4.13;3.00;;;16.20;42.70;;;;;;5057195;28;20172;-18
2022/03/09 11:55:42;;;;;;;3.77;2.77;;;16.20;42.90;;;;;;5069971;28;20172;-19
2022/03/09 11:58:13;;;;;;;3.77;2.70;;;16.20;43.00;;;;;;5070382;28;20178;-19
2022/03/09 12:00:59;;;;;;;3.63;2.60;;;16.20;43.00;;;;;;5064604;28;20623;-20
2022/03/09 12:03:40;;;;;;;2.93;2.60;;;16.20;42.90;;;;;;5075619;28;20179;-19
2022/03/09 12:06:42;;;;;;;3.47;2.57;;;16.20;43.00;;;;;;5049093;28;20181;-20
2022/03/09 12:09:08;;;;;;;3.70;2.77;;;16.20;42.90;;;;;;5068247;28;20736;-19
2022/03/09 12:12:06;;;;;;;2.80;2.53;;;16.20;42.90;;;;;;5041265;28;20584;-19
2022/03/09 12:15:08;;;;;;;3.90;3.07;;;16.20;43.10;;;;;;5047547;28;20218;-18
2022/03/09 12:17:37;;;;;;;3.47;2.80;;;16.20;43.00;;;;;;5058020;28;20194;-19
2022/03/09 12:20:20;;;;;;;5.33;2.73;;;16.20;42.90;;;;;;5075846;28;20187;-20
2022/03/09 12:22:59;;;;;;;3.87;2.73;;;16.20;42.80;;;;;;5058096;28;20716;-19
2022/03/09 12:25:47;;;;;;;4.03;2.87;;;16.10;42.90;;;;;;5057157;28;20178;-21
2022/03/09 12:28:28;;;;;;;5.67;3.00;;;16.20;42.90;;;;;;5057285;28;20199;-22
2022/03/09 12:31:03;;;;;;;5.07;3.10;;;16.20;42.70;;;;;;5057936;28;20238;-19
2022/03/09 12:33:40;;;;;;;4.97;3.10;;;16.20;42.80;;;;;;5057961;28;20171;-20
2022/03/09 12:36:29;;;;;;;3.37;2.73;;;16.20;42.60;;;;;;5038109;28;20185;-19
2022/03/09 12:38:58;;;;;;;3.53;3.20;;;16.20;42.50;;;;;;5037853;28;20277;-18
2022/03/09 12:41:31;;;;;;;3.83;2.90;;;16.20;42.90;;;;;;5055798;28;20251;-18
2022/03/09 12:44:03;;;;;;;3.77;3.00;;;16.20;42.50;;;;;;5057571;28;20580;-19
2022/03/09 12:46:36;;;;;;;3.63;2.90;;;16.20;42.50;;;;;;5074949;28;20167;-22
2022/03/09 12:49:09;;;;;;;3.87;3.40;;;16.20;42.20;;;;;;5061523;28;20265;-19
2022/03/09 12:51:36;;;;;;;3.90;3.10;;;16.20;42.00;;;;;;5074656;28;20198;-18
2022/03/09 12:54:02;;;;;;;6.63;3.37;;;16.20;41.70;;;;;;5075600;28;20266;-19
2022/03/09 12:56:29;;;;;;;3.80;3.10;;;16.20;41.70;;;;;;5074955;28;20273;-21